Time;durP1;ratioP1;P1;durP2;ratioP2;P2;SDS_P1;SDS_P2;PMS_P1;PMS_P2;Temp;Humidity;BMP_temperature;BMP_pressure;BME280_temperature;BME280_humidity;BME280_pressure;Samples;Min_cycle;Max_cycle;Signal;HPM_P1;HPM_P2
2022/03/02 00:01:38;;;;;;;13.27;10.17;;;7.40;63.50;;;;;;5018685;28;20448;-39
2022/03/02 00:04:04;;;;;;;22.27;13.90;;;7.20;64.00;;;;;;5021202;28;20815;-39
2022/03/02 00:06:30;;;;;;;26.97;17.10;;;7.00;66.20;;;;;;5026916;28;20425;-39
2022/03/02 00:08:56;;;;;;;27.00;16.67;;;7.30;65.70;;;;;;5027139;28;20225;-39
2022/03/02 00:11:21;;;;;;;22.27;13.50;;;6.90;66.90;;;;;;5026545;28;20757;-39
2022/03/02 00:13:47;;;;;;;17.50;12.87;;;7.10;67.50;;;;;;5027402;28;20197;-39
2022/03/02 00:16:13;;;;;;;14.57;9.80;;;7.00;65.90;;;;;;5011768;28;20270;-39
2022/03/02 00:18:39;;;;;;;11.70;9.80;;;7.00;64.70;;;;;;5026858;28;20197;-40
2022/03/02 00:21:05;;;;;;;11.23;8.77;;;7.10;65.10;;;;;;5026995;28;20966;-39
2022/03/02 00:23:31;;;;;;;11.47;8.30;;;7.10;63.60;;;;;;5044130;28;20601;-39
2022/03/02 00:25:57;;;;;;;13.43;9.00;;;6.90;62.80;;;;;;5042585;28;20192;-39
2022/03/02 00:28:24;;;;;;;13.07;8.77;;;7.00;62.90;;;;;;5051095;28;20556;-39
2022/03/02 00:30:50;;;;;;;12.13;9.30;;;7.00;62.90;;;;;;5026773;28;20183;-38
2022/03/02 00:33:15;;;;;;;15.20;9.30;;;7.10;62.90;;;;;;5030688;28;20501;-39
2022/03/02 00:35:41;;;;;;;10.90;7.50;;;6.80;63.10;;;;;;5031034;28;20185;-39
2022/03/02 00:38:10;;;;;;;12.63;8.13;;;7.00;64.40;;;;;;5030845;28;20186;-38
2022/03/02 00:40:40;;;;;;;12.00;8.90;;;6.90;65.00;;;;;;5030164;28;20429;-39
2022/03/02 00:43:07;;;;;;;10.03;7.33;;;6.80;64.70;;;;;;5030821;28;20451;-39
2022/03/02 00:45:34;;;;;;;10.63;9.13;;;6.90;64.40;;;;;;5022391;28;20518;-39
2022/03/02 00:48:00;;;;;;;11.60;8.20;;;6.80;64.10;;;;;;5024509;28;20967;-39
2022/03/02 00:50:26;;;;;;;12.10;8.23;;;6.70;63.80;;;;;;5028640;28;20444;-39
2022/03/02 00:52:52;;;;;;;10.23;7.83;;;6.70;64.10;;;;;;5030601;28;20409;-39
2022/03/02 00:55:18;;;;;;;11.80;8.33;;;6.70;65.40;;;;;;5029252;28;20420;-39
2022/03/02 00:57:44;;;;;;;12.13;7.47;;;6.60;66.70;;;;;;5029153;28;20673;-39
2022/03/02 01:00:11;;;;;;;10.03;7.40;;;6.50;68.00;;;;;;5025161;28;20436;-40
2022/03/02 01:02:38;;;;;;;12.13;9.13;;;6.30;71.20;;;;;;5025179;28;20417;-39
2022/03/02 01:05:07;;;;;;;11.80;8.27;;;6.50;68.50;;;;;;5028964;28;20417;-39
2022/03/02 01:07:34;;;;;;;10.97;8.10;;;6.60;65.00;;;;;;5030135;28;20883;-39
2022/03/02 01:10:00;;;;;;;12.27;8.20;;;6.40;64.20;;;;;;5029549;28;20432;-39
2022/03/02 01:12:26;;;;;;;9.47;7.70;;;6.60;64.50;;;;;;5030358;28;20627;-39
2022/03/02 01:14:52;;;;;;;10.10;8.13;;;6.70;65.40;;;;;;5028389;28;20467;-39
2022/03/02 01:17:19;;;;;;;12.20;8.60;;;6.30;70.80;;;;;;5023208;28;20421;-39
2022/03/02 01:19:45;;;;;;;10.40;8.20;;;6.10;73.70;;;;;;5029680;28;20611;-39
2022/03/02 01:22:10;;;;;;;11.27;8.20;;;5.90;76.40;;;;;;5039069;28;20431;-39
2022/03/02 01:24:36;;;;;;;10.20;7.80;;;5.80;75.50;;;;;;5041034;28;20429;-39
2022/03/02 01:27:02;;;;;;;9.73;7.57;;;5.80;77.70;;;;;;5050025;28;20253;-39
2022/03/02 01:29:33;;;;;;;11.80;8.50;;;5.90;78.20;;;;;;5049782;28;20240;-39
2022/03/02 01:32:00;;;;;;;11.20;8.30;;;5.40;79.90;;;;;;5019670;28;20500;-39
2022/03/02 01:34:26;;;;;;;8.50;6.90;;;5.60;80.40;;;;;;5029922;28;20888;-39
2022/03/02 01:36:52;;;;;;;10.13;8.83;;;5.70;82.20;;;;;;5029862;28;20424;-39
2022/03/02 01:39:18;;;;;;;9.73;7.73;;;5.30;80.40;;;;;;5028348;28;20436;-39
2022/03/02 01:41:44;;;;;;;8.33;7.03;;;5.20;79.40;;;;;;5028946;28;20456;-39
2022/03/02 01:44:09;;;;;;;9.63;7.77;;;5.20;80.30;;;;;;5029503;28;20196;-39
2022/03/02 01:46:35;;;;;;;11.93;9.27;;;5.10;82.80;;;;;;5020130;28;20450;-38
2022/03/02 01:49:01;;;;;;;12.00;7.67;;;5.10;85.00;;;;;;5027794;28;20252;-39
2022/03/02 01:51:27;;;;;;;10.10;8.30;;;4.80;86.90;;;;;;5028882;28;20622;-39
2022/03/02 01:53:53;;;;;;;9.57;7.67;;;4.80;88.00;;;;;;5029524;28;20451;-39
2022/03/02 01:56:19;;;;;;;13.27;8.73;;;4.70;90.20;;;;;;5008280;28;20245;-39
2022/03/02 01:58:45;;;;;;;11.30;8.80;;;4.70;91.10;;;;;;5026450;28;20182;-39
2022/03/02 02:01:12;;;;;;;10.80;8.13;;;4.80;91.20;;;;;;5019402;28;20593;-38
2022/03/02 02:03:38;;;;;;;11.23;8.63;;;4.50;91.60;;;;;;5028149;28;20487;-39
2022/03/02 02:06:05;;;;;;;12.20;7.83;;;4.60;91.70;;;;;;5029227;28;20535;-39
2022/03/02 02:08:32;;;;;;;12.67;8.70;;;4.70;91.90;;;;;;5029287;28;20719;-39
2022/03/02 02:10:59;;;;;;;12.10;8.10;;;4.50;92.30;;;;;;5028139;28;20429;-39
2022/03/02 02:13:26;;;;;;;12.97;8.80;;;4.90;92.70;;;;;;5029132;28;20444;-39
2022/03/02 02:15:56;;;;;;;11.33;8.53;;;4.60;92.40;;;;;;5023443;28;20841;-39
2022/03/02 02:18:21;;;;;;;11.50;8.63;;;4.60;92.20;;;;;;5026452;28;21022;-39
2022/03/02 02:20:47;;;;;;;12.63;8.70;;;4.60;92.20;;;;;;5028225;28;20536;-39
2022/03/02 02:23:13;;;;;;;10.73;8.17;;;4.70;92.30;;;;;;5046561;28;20189;-40
2022/03/02 02:25:39;;;;;;;11.90;8.63;;;4.80;92.40;;;;;;5043105;28;20269;-39
2022/03/02 02:28:08;;;;;;;13.40;8.67;;;4.80;92.50;;;;;;5048983;28;20205;-40
2022/03/02 02:30:34;;;;;;;10.50;8.17;;;4.70;92.40;;;;;;5048491;28;20806;-39
2022/03/02 02:33:00;;;;;;;10.67;8.30;;;4.60;91.80;;;;;;5024543;28;20425;-40
2022/03/02 02:35:26;;;;;;;11.43;8.40;;;4.50;91.50;;;;;;5028586;28;20438;-39
2022/03/02 02:37:53;;;;;;;13.57;8.83;;;4.60;92.40;;;;;;5028464;28;20371;-39
2022/03/02 02:40:20;;;;;;;11.47;8.77;;;4.40;92.10;;;;;;5027771;28;20488;-39
2022/03/02 02:42:48;;;;;;;10.83;8.63;;;4.40;92.80;;;;;;5028443;28;20885;-40
2022/03/02 02:45:17;;;;;;;11.83;8.50;;;4.50;93.40;;;;;;5026379;28;20426;-39
2022/03/02 02:47:47;;;;;;;11.27;8.20;;;4.50;94.20;;;;;;5018601;28;20450;-39
2022/03/02 02:50:26;;;;;;;11.17;8.80;;;4.40;93.60;;;;;;5022072;28;20847;-39
2022/03/02 02:52:52;;;;;;;13.87;9.80;;;4.40;94.30;;;;;;5027096;28;20453;-39
2022/03/02 02:55:19;;;;;;;14.00;8.20;;;4.40;95.00;;;;;;5028347;28;20900;-40
2022/03/02 02:57:45;;;;;;;14.83;9.40;;;4.20;94.70;;;;;;5028156;28;20873;-39
2022/03/02 03:00:14;;;;;;;13.20;9.60;;;4.40;94.40;;;;;;5027669;28;20496;-39
2022/03/02 03:02:42;;;;;;;10.53;8.33;;;4.40;92.70;;;;;;5019643;28;20433;-40
2022/03/02 03:05:12;;;;;;;14.80;9.63;;;4.80;91.50;;;;;;5023469;28;20839;-39
2022/03/02 03:07:38;;;;;;;13.73;10.13;;;4.90;90.20;;;;;;5027878;28;20465;-39
2022/03/02 03:10:05;;;;;;;12.93;9.17;;;4.80;91.50;;;;;;5026003;28;20429;-39
2022/03/02 03:12:31;;;;;;;15.27;9.07;;;4.60;92.00;;;;;;5026645;28;20432;-39
2022/03/02 03:14:57;;;;;;;14.47;8.57;;;4.50;93.30;;;;;;5028021;28;20932;-39
2022/03/02 03:17:22;;;;;;;14.23;10.33;;;4.10;93.60;;;;;;5020540;28;20620;-39
2022/03/02 03:19:48;;;;;;;15.53;9.57;;;4.30;94.30;;;;;;5027151;28;20660;-39
2022/03/02 03:22:14;;;;;;;12.90;9.43;;;4.40;95.20;;;;;;5031711;28;20277;-39
2022/03/02 03:24:39;;;;;;;14.03;9.43;;;4.50;95.00;;;;;;5027687;28;20226;-39
2022/03/02 03:27:05;;;;;;;15.00;10.50;;;4.50;95.50;;;;;;5026426;28;20190;-40
2022/03/02 03:29:31;;;;;;;13.00;9.47;;;4.40;95.90;;;;;;5027471;28;20213;-39
2022/03/02 03:31:56;;;;;;;13.73;10.30;;;4.20;96.30;;;;;;5022946;28;20626;-39
2022/03/02 03:34:22;;;;;;;12.43;9.50;;;4.30;96.60;;;;;;5020066;28;20377;-39
2022/03/02 03:36:48;;;;;;;14.03;8.80;;;4.10;96.40;;;;;;5026365;28;20232;-39
2022/03/02 03:39:13;;;;;;;15.37;9.97;;;4.10;96.70;;;;;;5027722;28;20198;-39
2022/03/02 03:41:39;;;;;;;13.87;10.17;;;4.10;96.50;;;;;;5025519;28;20236;-39
2022/03/02 03:44:04;;;;;;;13.23;9.90;;;4.10;96.40;;;;;;5027415;28;20294;-39
2022/03/02 03:46:30;;;;;;;15.40;10.27;;;4.10;96.60;;;;;;5027494;28;20190;-40
2022/03/02 03:48:56;;;;;;;15.70;10.63;;;4.00;97.60;;;;;;5012924;28;20677;-40
2022/03/02 03:51:22;;;;;;;15.30;10.80;;;4.20;97.40;;;;;;5026510;28;20768;-39
2022/03/02 03:53:47;;;;;;;15.30;11.10;;;4.30;97.50;;;;;;5026095;28;20190;-38
2022/03/02 03:56:13;;;;;;;14.23;10.57;;;4.20;98.30;;;;;;5025782;28;20730;-39
2022/03/02 03:58:39;;;;;;;11.90;10.60;;;4.20;98.70;;;;;;5027706;28;20241;-39
2022/03/02 04:01:05;;;;;;;12.63;9.70;;;4.30;99.20;;;;;;5026553;28;20239;-38
2022/03/02 04:03:31;;;;;;;13.90;10.20;;;4.10;99.00;;;;;;5017119;28;20453;-38
2022/03/02 04:05:56;;;;;;;15.50;10.93;;;4.40;99.20;;;;;;5027223;28;20773;-39
2022/03/02 04:08:22;;;;;;;13.40;9.90;;;4.20;99.20;;;;;;5027279;28;20218;-39
2022/03/02 04:10:49;;;;;;;15.07;10.20;;;4.20;99.30;;;;;;5026913;28;20187;-39
2022/03/02 04:13:15;;;;;;;14.63;10.17;;;4.00;99.10;;;;;;5009505;28;20221;-40
2022/03/02 04:15:41;;;;;;;12.43;9.70;;;4.00;98.90;;;;;;5027054;28;20416;-39
2022/03/02 04:18:07;;;;;;;16.17;10.47;;;3.70;99.00;;;;;;5020925;28;20813;-39
2022/03/02 04:20:34;;;;;;;13.17;10.17;;;3.80;98.90;;;;;;5024771;28;20236;-38
2022/03/02 04:23:01;;;;;;;15.50;11.37;;;3.80;99.50;;;;;;5027341;28;20787;-39
2022/03/02 04:25:27;;;;;;;15.30;9.43;;;3.80;99.90;;;;;;5027166;28;20606;-39
2022/03/02 04:27:52;;;;;;;15.77;10.00;;;3.90;99.90;;;;;;5026870;28;20468;-39
2022/03/02 04:30:18;;;;;;;14.07;9.67;;;3.80;99.90;;;;;;5026563;28;20428;-39
2022/03/02 04:32:44;;;;;;;12.63;9.93;;;3.80;99.60;;;;;;5020949;28;20646;-39
2022/03/02 04:35:11;;;;;;;12.40;9.80;;;3.90;99.60;;;;;;5022537;28;20187;-39
2022/03/02 04:37:38;;;;;;;14.13;10.63;;;3.60;99.60;;;;;;5026854;28;20425;-38
2022/03/02 04:40:09;;;;;;;13.67;10.03;;;3.80;99.70;;;;;;5025195;28;20432;-39
2022/03/02 04:42:35;;;;;;;15.27;10.63;;;3.80;99.90;;;;;;5025575;28;20935;-39
2022/03/02 04:45:01;;;;;;;16.60;10.47;;;3.80;99.50;;;;;;5026913;28;20928;-39
2022/03/02 04:47:27;;;;;;;15.17;10.10;;;3.70;99.40;;;;;;5024503;28;20432;-39
2022/03/02 04:49:52;;;;;;;14.27;9.87;;;3.90;99.30;;;;;;5018372;28;20417;-38
2022/03/02 04:52:19;;;;;;;16.47;10.77;;;3.70;98.60;;;;;;5026784;28;20205;-39
2022/03/02 04:57:29;;;;;;;19.00;11.00;;;3.70;98.60;;;;;;5037281;28;20550;-39
2022/03/02 04:59:54;;;;;;;15.50;10.67;;;3.80;98.90;;;;;;5046232;28;20523;-39
2022/03/02 05:02:20;;;;;;;15.70;9.10;;;3.40;99.50;;;;;;5045443;28;20194;-39
2022/03/02 05:04:46;;;;;;;12.83;10.20;;;3.50;99.90;;;;;;5011589;28;20198;-39
2022/03/02 05:07:11;;;;;;;15.47;9.90;;;3.50;99.90;;;;;;5027319;28;20183;-39
2022/03/02 05:09:37;;;;;;;12.00;9.50;;;3.40;99.90;;;;;;5029994;28;20210;-39
2022/03/02 05:12:03;;;;;;;17.10;9.63;;;3.40;99.90;;;;;;5030006;28;20244;-39
2022/03/02 05:14:30;;;;;;;11.90;9.17;;;3.30;99.90;;;;;;5029794;28;20599;-39
2022/03/02 05:16:56;;;;;;;15.17;10.67;;;3.30;99.90;;;;;;5030078;28;20782;-38
2022/03/02 05:19:21;;;;;;;14.23;9.70;;;3.20;99.90;;;;;;5017869;28;20437;-39
2022/03/02 05:21:50;;;;;;;14.87;10.70;;;3.10;99.90;;;;;;5035708;28;20183;-39
2022/03/02 05:24:16;;;;;;;13.47;10.00;;;3.30;99.90;;;;;;5029969;28;20190;-38
2022/03/02 05:26:42;;;;;;;16.37;10.60;;;3.30;99.90;;;;;;5029638;28;20808;-39
2022/03/02 05:29:08;;;;;;;17.67;11.33;;;3.10;99.90;;;;;;5029615;28;20299;-39
2022/03/02 05:31:33;;;;;;;17.10;10.70;;;3.20;99.90;;;;;;5029275;28;20183;-38
2022/03/02 05:33:59;;;;;;;13.87;10.03;;;3.30;99.90;;;;;;5017370;28;20533;-39
2022/03/02 05:36:26;;;;;;;16.77;10.47;;;3.10;99.90;;;;;;5028796;28;20261;-40
2022/03/02 05:38:52;;;;;;;12.67;9.40;;;3.00;99.90;;;;;;5029568;28;20461;-38
2022/03/02 05:41:18;;;;;;;14.90;11.33;;;3.10;99.90;;;;;;5025058;28;20437;-39
2022/03/02 05:43:44;;;;;;;15.60;10.40;;;3.20;99.90;;;;;;5024879;28;20556;-39
2022/03/02 05:46:10;;;;;;;15.67;10.17;;;3.00;99.90;;;;;;5030761;28;20496;-39
2022/03/02 05:48:36;;;;;;;15.17;10.17;;;2.90;99.90;;;;;;5023085;28;20316;-39
2022/03/02 05:51:02;;;;;;;14.13;10.10;;;2.90;99.90;;;;;;5027683;28;20585;-39
2022/03/02 05:53:28;;;;;;;16.40;10.97;;;3.10;99.90;;;;;;5024882;28;20433;-39
2022/03/02 05:55:54;;;;;;;18.03;10.03;;;2.80;99.90;;;;;;5029222;28;20429;-39
2022/03/02 05:58:19;;;;;;;15.57;11.07;;;2.80;99.90;;;;;;5029334;28;20202;-39
2022/03/02 06:00:45;;;;;;;12.50;9.73;;;3.00;99.90;;;;;;5028576;28;20186;-39
2022/03/02 06:03:10;;;;;;;15.43;10.43;;;2.90;99.90;;;;;;5024496;28;20195;-39
2022/03/02 06:05:36;;;;;;;13.07;10.53;;;2.90;99.90;;;;;;5023731;28;20198;-39
2022/03/02 06:08:02;;;;;;;14.50;10.23;;;3.20;99.90;;;;;;5027846;28;20729;-38
2022/03/02 06:10:28;;;;;;;15.67;10.57;;;3.20;99.90;;;;;;5028056;28;20401;-39
2022/03/02 06:12:54;;;;;;;13.50;11.33;;;3.10;99.90;;;;;;5029142;28;20957;-38
2022/03/02 06:15:20;;;;;;;13.17;10.17;;;3.00;99.90;;;;;;5027560;28;20417;-39
2022/03/02 06:17:46;;;;;;;14.30;10.97;;;3.00;99.90;;;;;;5029153;28;20452;-39
2022/03/02 06:20:12;;;;;;;16.53;10.53;;;3.00;99.90;;;;;;5016381;28;20944;-38
2022/03/02 06:22:39;;;;;;;15.27;9.80;;;3.40;99.90;;;;;;5028343;28;20432;-38
2022/03/02 06:25:07;;;;;;;15.20;10.30;;;3.30;99.90;;;;;;5034637;28;20446;-39
2022/03/02 06:27:34;;;;;;;18.80;10.83;;;3.80;99.90;;;;;;5037536;28;20926;-39
2022/03/02 06:29:59;;;;;;;15.43;9.40;;;3.70;99.80;;;;;;5047730;28;20429;-39
2022/03/02 06:32:25;;;;;;;16.93;10.70;;;3.70;99.50;;;;;;5047349;28;20450;-39
2022/03/02 06:34:51;;;;;;;14.87;10.03;;;3.90;99.40;;;;;;5022962;28;20179;-39
2022/03/02 06:37:17;;;;;;;14.60;10.10;;;4.00;99.50;;;;;;5027364;28;20635;-39
2022/03/02 06:39:43;;;;;;;14.10;10.63;;;4.30;98.70;;;;;;5024038;28;20182;-40
2022/03/02 06:42:27;;;;;;;17.00;10.03;;;4.00;97.90;;;;;;5026079;28;20528;-39
2022/03/02 06:44:57;;;;;;;18.23;11.17;;;4.20;98.00;;;;;;5018138;28;20427;-41
2022/03/02 06:47:31;;;;;;;17.50;10.80;;;4.10;99.20;;;;;;5028699;28;20523;-39
2022/03/02 06:50:09;;;;;;;19.63;11.90;;;3.90;99.90;;;;;;5020972;28;20494;-40
2022/03/02 06:52:45;;;;;;;23.10;12.50;;;4.10;99.90;;;;;;5025751;28;21199;-38
2022/03/02 06:55:17;;;;;;;14.27;11.50;;;4.10;99.60;;;;;;5025818;28;20789;-39
2022/03/02 06:57:51;;;;;;;18.20;11.90;;;4.10;99.50;;;;;;5024408;28;20503;-39
2022/03/02 07:00:17;;;;;;;15.30;10.90;;;4.20;97.10;;;;;;5028369;28;20984;-39
2022/03/02 07:02:51;;;;;;;14.40;11.03;;;4.70;96.90;;;;;;5024751;28;20727;-39
2022/03/02 07:05:18;;;;;;;15.53;10.33;;;4.60;96.60;;;;;;5021868;28;20968;-38
2022/03/02 07:07:45;;;;;;;14.43;10.80;;;4.70;96.30;;;;;;5032631;28;20486;-39
2022/03/02 07:10:11;;;;;;;15.73;11.30;;;5.00;96.20;;;;;;5033178;28;20459;-39
2022/03/02 07:12:38;;;;;;;21.23;11.53;;;4.80;96.40;;;;;;5026914;28;20520;-39
2022/03/02 07:15:06;;;;;;;12.63;9.70;;;4.60;96.50;;;;;;5028207;28;20488;-40
2022/03/02 07:17:32;;;;;;;18.07;10.40;;;4.70;96.40;;;;;;5028076;28;20836;-39
2022/03/02 07:19:59;;;;;;;18.30;10.70;;;5.00;96.20;;;;;;5017799;28;20465;-40
2022/03/02 07:22:31;;;;;;;15.20;10.30;;;5.00;96.10;;;;;;5027700;28;20426;-39
2022/03/02 07:25:11;;;;;;;12.60;10.07;;;4.80;96.00;;;;;;5026330;28;20425;-39
2022/03/02 07:27:39;;;;;;;14.17;9.93;;;4.80;95.50;;;;;;5027364;28;20793;-39
2022/03/02 07:30:07;;;;;;;13.23;10.00;;;5.10;95.20;;;;;;5026375;28;20452;-39
2022/03/02 07:32:35;;;;;;;11.97;9.40;;;5.10;95.20;;;;;;5027460;28;20958;-39
2022/03/02 07:35:03;;;;;;;15.07;10.40;;;5.00;95.10;;;;;;5015681;28;20805;-39
2022/03/02 07:37:29;;;;;;;14.47;10.17;;;5.20;94.80;;;;;;5025445;28;20789;-39
2022/03/02 07:39:55;;;;;;;13.20;10.13;;;5.10;94.30;;;;;;5026973;28;20417;-38
2022/03/02 07:42:21;;;;;;;14.67;9.80;;;5.40;94.00;;;;;;5027293;28;20421;-39
2022/03/02 07:44:48;;;;;;;12.73;9.30;;;5.40;93.20;;;;;;5027502;28;20495;-39
2022/03/02 07:47:14;;;;;;;11.67;9.57;;;5.90;92.30;;;;;;5027567;28;20436;-38
2022/03/02 07:49:40;;;;;;;13.63;9.83;;;6.20;91.80;;;;;;5018557;28;20475;-39
2022/03/02 07:52:06;;;;;;;15.17;11.03;;;6.50;91.50;;;;;;5020998;28;20500;-39
2022/03/02 07:54:37;;;;;;;15.70;10.50;;;6.60;90.90;;;;;;5027194;28;20232;-39
2022/03/02 07:57:04;;;;;;;15.20;9.67;;;7.00;90.20;;;;;;5026986;28;20453;-39
2022/03/02 07:59:42;;;;;;;14.37;9.97;;;7.50;89.30;;;;;;5026060;28;20450;-38
2022/03/02 08:02:10;;;;;;;10.93;8.57;;;7.60;88.20;;;;;;5027094;28;20722;-39
2022/03/02 08:04:37;;;;;;;10.73;8.90;;;7.70;84.60;;;;;;5020212;28;20450;-39
2022/03/02 08:07:03;;;;;;;13.53;9.30;;;7.90;82.80;;;;;;5024596;28;20413;-39
2022/03/02 08:09:31;;;;;;;10.90;9.20;;;8.30;81.00;;;;;;5027418;28;20547;-39
2022/03/02 08:11:58;;;;;;;10.90;9.20;;;8.40;80.10;;;;;;5026426;28;20449;-39
2022/03/02 08:14:25;;;;;;;11.10;9.00;;;8.40;78.60;;;;;;5027337;28;20437;-40
2022/03/02 08:16:55;;;;;;;13.27;9.20;;;8.50;78.40;;;;;;5025613;28;20810;-39
2022/03/02 08:19:21;;;;;;;11.00;9.03;;;8.60;77.00;;;;;;5021457;28;20521;-39
2022/03/02 08:22:01;;;;;;;14.27;9.50;;;9.00;76.60;;;;;;5021880;28;20431;-39
2022/03/02 08:24:29;;;;;;;12.87;9.80;;;8.90;75.50;;;;;;5027165;28;20424;-38
2022/03/02 08:27:01;;;;;;;12.73;8.70;;;9.40;74.60;;;;;;5027025;28;20460;-39
2022/03/02 08:29:30;;;;;;;13.13;9.40;;;9.40;73.70;;;;;;5027382;28;20473;-39
2022/03/02 08:32:02;;;;;;;10.67;8.17;;;9.60;73.20;;;;;;5026151;28;20439;-39
2022/03/02 08:34:29;;;;;;;11.70;8.83;;;9.70;69.80;;;;;;5021922;28;20794;-39
2022/03/02 08:36:56;;;;;;;12.03;8.70;;;9.70;68.70;;;;;;5018890;28;20459;-39
2022/03/02 08:39:22;;;;;;;10.07;8.57;;;9.70;69.70;;;;;;5026035;28;20823;-39
2022/03/02 08:41:48;;;;;;;16.53;9.67;;;9.80;67.70;;;;;;5026307;28;20506;-39
2022/03/02 08:44:15;;;;;;;12.20;9.20;;;10.00;66.70;;;;;;5030767;28;20433;-39
2022/03/02 08:46:44;;;;;;;12.03;9.37;;;10.00;65.70;;;;;;5030556;28;20491;-39
2022/03/02 08:49:09;;;;;;;11.10;9.27;;;10.30;67.60;;;;;;5027861;28;20801;-39
2022/03/02 08:51:39;;;;;;;12.70;9.67;;;10.40;65.80;;;;;;5035501;28;20521;-40
2022/03/02 08:54:05;;;;;;;12.80;9.40;;;10.60;63.20;;;;;;5030568;28;20178;-39
2022/03/02 08:56:38;;;;;;;10.53;9.07;;;10.80;61.80;;;;;;5030527;28;20445;-39
2022/03/02 08:59:06;;;;;;;10.90;9.20;;;10.70;64.10;;;;;;5030355;28;20478;-40
2022/03/02 09:01:32;;;;;;;10.30;8.70;;;10.90;62.30;;;;;;5029667;28;20433;-39
2022/03/02 09:03:59;;;;;;;10.83;9.13;;;11.00;59.00;;;;;;5030360;28;20429;-39
2022/03/02 09:06:27;;;;;;;10.80;8.60;;;10.90;61.60;;;;;;5021880;28;20536;-39
2022/03/02 09:08:55;;;;;;;10.07;8.90;;;10.90;59.60;;;;;;5030045;28;20472;-38
2022/03/02 09:11:21;;;;;;;11.37;8.60;;;11.20;61.60;;;;;;5029809;28;20819;-41
2022/03/02 09:13:49;;;;;;;10.47;8.97;;;11.40;61.20;;;;;;5029917;28;20515;-39
2022/03/02 09:16:15;;;;;;;9.77;8.77;;;11.50;58.50;;;;;;5030138;28;20440;-40
2022/03/02 09:18:42;;;;;;;9.97;8.50;;;11.70;57.20;;;;;;5030080;28;20428;-40
2022/03/02 09:21:09;;;;;;;11.70;9.47;;;11.90;57.70;;;;;;5023548;28;20906;-39
2022/03/02 09:23:40;;;;;;;12.37;10.27;;;11.90;57.50;;;;;;5029893;28;20956;-39
2022/03/02 09:26:10;;;;;;;12.90;10.30;;;12.10;59.90;;;;;;5030147;28;20429;-39
2022/03/02 09:28:38;;;;;;;13.63;10.93;;;12.20;60.60;;;;;;5029641;28;21318;-41
2022/03/02 09:31:06;;;;;;;16.77;11.60;;;12.20;62.80;;;;;;5029587;28;20696;-39
2022/03/02 09:33:34;;;;;;;17.50;12.90;;;12.20;62.70;;;;;;5030055;28;20428;-39
2022/03/02 09:36:05;;;;;;;20.40;13.50;;;12.40;63.60;;;;;;5018873;28;20441;-39
2022/03/02 09:38:33;;;;;;;16.70;12.07;;;12.50;62.30;;;;;;5029622;28;20651;-39
2022/03/02 09:41:12;;;;;;;15.90;13.20;;;12.80;62.90;;;;;;5027650;28;20460;-39
2022/03/02 09:43:43;;;;;;;14.87;12.43;;;12.90;59.80;;;;;;5028638;28;20834;-39
2022/03/02 09:46:12;;;;;;;15.10;11.10;;;13.00;58.90;;;;;;5029826;28;20425;-39
2022/03/02 09:48:50;;;;;;;13.93;10.80;;;13.00;58.30;;;;;;5029707;28;20797;-39
2022/03/02 09:51:24;;;;;;;13.80;12.30;;;13.20;58.60;;;;;;5012835;28;20468;-39
2022/03/02 09:53:53;;;;;;;15.10;12.20;;;13.40;59.70;;;;;;5026933;28;20418;-40
2022/03/02 09:56:22;;;;;;;14.67;12.30;;;13.50;56.90;;;;;;5029451;28;20438;-39
2022/03/02 09:58:51;;;;;;;14.00;11.27;;;13.50;56.60;;;;;;5028413;28;20504;-41
2022/03/02 10:01:22;;;;;;;14.10;12.70;;;13.70;56.10;;;;;;5028704;28;20831;-40
2022/03/02 10:03:50;;;;;;;15.20;12.60;;;13.70;56.70;;;;;;5029512;28;20439;-40
2022/03/02 10:06:17;;;;;;;18.53;13.17;;;13.70;53.60;;;;;;5016708;28;20908;-41
2022/03/02 10:08:48;;;;;;;16.33;11.87;;;13.60;54.30;;;;;;5027165;28;20504;-40
2022/03/02 10:11:18;;;;;;;12.00;10.40;;;13.50;53.80;;;;;;5020660;28;20428;-40
2022/03/02 10:13:44;;;;;;;13.10;10.90;;;13.80;55.40;;;;;;5029015;28;20421;-39
2022/03/02 10:16:22;;;;;;;12.00;10.60;;;13.90;55.40;;;;;;5029014;28;20417;-40
2022/03/02 10:19:08;;;;;;;12.90;10.47;;;13.80;54.40;;;;;;5029460;28;20540;-39
2022/03/02 10:21:40;;;;;;;13.53;9.27;;;13.90;52.20;;;;;;5018473;28;20483;-40
2022/03/02 10:24:07;;;;;;;12.83;9.83;;;13.80;51.30;;;;;;5029017;28;20425;-39
2022/03/02 10:26:49;;;;;;;14.87;10.20;;;13.80;50.90;;;;;;5028916;28;20433;-39
2022/03/02 10:29:31;;;;;;;12.20;10.17;;;13.70;50.50;;;;;;5029108;28;20839;-39
2022/03/02 10:32:11;;;;;;;11.60;10.17;;;13.50;51.20;;;;;;5015959;28;20501;-40
2022/03/02 10:34:49;;;;;;;15.33;11.00;;;13.50;52.60;;;;;;5028017;28;20520;-40
2022/03/02 10:37:38;;;;;;;11.63;10.23;;;13.50;52.70;;;;;;5024187;28;20508;-40
2022/03/02 10:40:24;;;;;;;13.27;11.03;;;13.80;53.00;;;;;;5022668;28;20417;-39
2022/03/02 10:42:57;;;;;;;13.60;10.70;;;14.10;51.40;;;;;;5028489;28;20469;-41
2022/03/02 10:45:42;;;;;;;14.10;11.27;;;14.00;50.60;;;;;;5028786;28;20425;-40
2022/03/02 10:48:08;;;;;;;10.03;8.87;;;14.10;51.30;;;;;;5028645;28;20484;-39
2022/03/02 10:50:37;;;;;;;11.30;9.30;;;13.90;46.20;;;;;;5023406;28;20496;-40
2022/03/02 10:53:05;;;;;;;10.60;9.50;;;13.80;46.30;;;;;;5023003;28;20448;-40
2022/03/02 10:55:32;;;;;;;10.20;8.90;;;13.50;46.20;;;;;;5028280;28;20417;-39
2022/03/02 10:58:03;;;;;;;10.57;8.87;;;13.50;46.90;;;;;;5028142;28;20467;-39
2022/03/02 11:00:29;;;;;;;11.90;9.47;;;13.40;46.40;;;;;;5028002;28;20429;-39
2022/03/02 11:02:59;;;;;;;10.63;8.67;;;13.30;46.70;;;;;;5028211;28;20498;-41
2022/03/02 11:05:30;;;;;;;9.17;7.87;;;13.30;47.30;;;;;;5023895;28;20912;-42
2022/03/02 11:07:57;;;;;;;13.33;8.80;;;13.00;46.20;;;;;;5021654;28;20547;-40
2022/03/02 11:10:37;;;;;;;11.37;9.20;;;13.00;45.50;;;;;;5026163;28;20978;-39
2022/03/02 11:13:13;;;;;;;11.13;8.67;;;12.90;48.40;;;;;;5027773;28;20429;-39
2022/03/02 11:15:57;;;;;;;10.30;9.20;;;12.90;46.30;;;;;;5028196;28;20863;-40
2022/03/02 11:18:40;;;;;;;8.63;7.73;;;12.70;46.90;;;;;;5028137;28;20790;-39
2022/03/02 11:21:07;;;;;;;10.60;8.00;;;12.60;44.10;;;;;;5023002;28;21011;-39
2022/03/02 11:23:47;;;;;;;9.50;8.37;;;12.40;43.20;;;;;;5027391;28;20559;-39
2022/03/02 11:26:16;;;;;;;9.77;8.10;;;12.30;45.00;;;;;;5027696;28;20429;-39
2022/03/02 11:28:53;;;;;;;8.60;7.80;;;12.30;44.10;;;;;;5027577;28;20559;-39
2022/03/02 11:31:26;;;;;;;9.77;8.77;;;12.30;46.10;;;;;;5027391;28;20776;-40
2022/03/02 11:34:07;;;;;;;9.37;7.90;;;12.40;46.00;;;;;;5027460;28;20520;-39
2022/03/02 11:36:36;;;;;;;9.13;8.23;;;12.50;45.00;;;;;;5017931;28;20434;-39
2022/03/02 11:39:03;;;;;;;12.07;8.47;;;12.70;45.70;;;;;;5009781;28;21121;-39
2022/03/02 11:41:38;;;;;;;9.17;8.17;;;12.70;45.00;;;;;;5026818;28;20428;-39
2022/03/02 11:44:24;;;;;;;10.27;8.70;;;12.90;46.10;;;;;;5027057;28;20889;-39
2022/03/02 11:46:50;;;;;;;9.00;8.10;;;13.10;44.60;;;;;;5027690;28;20986;-40
2022/03/02 11:49:16;;;;;;;9.00;7.90;;;13.30;45.90;;;;;;5027495;28;20567;-39
2022/03/02 11:51:41;;;;;;;10.33;7.90;;;13.50;45.10;;;;;;5022173;28;20648;-40
2022/03/02 11:54:09;;;;;;;10.33;8.40;;;13.80;45.70;;;;;;5025390;28;20656;-39
2022/03/02 11:56:35;;;;;;;8.90;7.63;;;14.00;44.20;;;;;;5006441;28;20286;-39
2022/03/02 11:59:07;;;;;;;9.23;7.37;;;14.00;41.10;;;;;;5025842;28;20508;-40
2022/03/02 12:01:51;;;;;;;7.50;6.80;;;14.10;42.50;;;;;;5026634;28;20272;-40
2022/03/02 12:04:17;;;;;;;8.90;8.10;;;14.30;42.80;;;;;;5026218;28;20819;-39
2022/03/02 12:06:52;;;;;;;8.47;7.67;;;14.30;42.40;;;;;;5026037;28;20443;-39
2022/03/02 12:09:37;;;;;;;9.37;8.37;;;14.10;40.90;;;;;;5027489;28;20858;-40
2022/03/02 12:12:10;;;;;;;7.87;7.17;;;14.20;42.50;;;;;;5026484;28;20425;-39
2022/03/02 12:14:48;;;;;;;9.37;8.47;;;14.20;40.10;;;;;;5025851;28;20428;-41
2022/03/02 12:17:20;;;;;;;11.20;7.87;;;14.30;40.90;;;;;;5029762;28;20547;-39
2022/03/02 12:19:48;;;;;;;8.30;7.50;;;14.40;40.80;;;;;;5029471;28;20429;-40
2022/03/02 12:22:17;;;;;;;8.03;7.23;;;14.40;41.60;;;;;;5018085;28;20492;-41
2022/03/02 12:24:46;;;;;;;9.30;8.40;;;14.50;43.40;;;;;;5030920;28;20417;-39
2022/03/02 12:27:12;;;;;;;10.10;8.20;;;14.60;42.80;;;;;;5031426;28;20835;-42
2022/03/02 12:29:40;;;;;;;8.27;7.47;;;14.60;41.90;;;;;;5030448;28;20827;-40
2022/03/02 12:32:10;;;;;;;9.63;8.63;;;14.70;43.40;;;;;;5030760;28;20417;-41
2022/03/02 12:34:39;;;;;;;8.83;7.90;;;14.80;43.30;;;;;;5030998;28;20437;-41
2022/03/02 12:37:06;;;;;;;9.03;8.13;;;14.90;42.90;;;;;;5020362;28;20692;-40
2022/03/02 12:39:33;;;;;;;9.40;8.40;;;14.90;41.50;;;;;;5029264;28;20799;-40
2022/03/02 12:42:02;;;;;;;9.03;8.13;;;14.90;40.90;;;;;;5030492;28;20502;-40
2022/03/02 12:44:29;;;;;;;10.47;8.50;;;14.90;42.50;;;;;;5030975;28;20433;-40
2022/03/02 12:46:59;;;;;;;8.80;8.00;;;14.90;41.20;;;;;;5030727;28;20753;-39
2022/03/02 12:49:27;;;;;;;10.47;8.43;;;14.90;43.00;;;;;;5030852;28;20819;-39